Terminal Aerodrome Forecast
Issued by NWS Missoula, MT

Home | Current Version | Previous Version | Text Only | Print | Product List | Glossary On
Versions: 1 2 3 4 5 6 7 8 9 10 11 12 13 14
000
FTUS45 KMSO 012322
TAFGPI
TAF
KGPI 012322Z 0200/0224 26012G20KT P6SM VCSH BKN060
      TEMPO 0200/0203 28015G28KT 5SM -SHSNGS OVC035
     FM020400 VRB06KT P6SM SCT050 BKN100
     FM021200 00000KT P6SM SCT015 SCT070
     FM021700 17006KT P6SM BKN050=

USA.gov is the U.S. government's official web portal to all federal, state and local government web resources and services.